Time;durP1;ratioP1;P1;durP2;ratioP2;P2;SDS_P1;SDS_P2;PMS_P1;PMS_P2;Temp;Humidity;BMP_temperature;BMP_pressure;BME280_temperature;BME280_humidity;BME280_pressure;Samples;Min_cycle;Max_cycle;Signal;HPM_P1;HPM_P2
2024/03/19 00:02:26;;;;;;;14.70;9.40;;;;;;;1.30;77.24;98963.41;435258;1256;109398;-39
2024/03/19 00:12:33;;;;;;;19.00;10.90;;;;;;;1.38;77.36;98970.89;435114;1251;99330;-40
2024/03/19 00:22:39;;;;;;;20.90;13.50;;;;;;;1.36;77.55;98968.69;435898;1256;111755;-40
2024/03/19 00:32:46;;;;;;;28.20;14.20;;;;;;;1.25;77.94;98962.58;435335;1256;107345;-39
2024/03/19 00:42:51;;;;;;;24.70;14.10;;;;;;;1.11;78.01;98962.41;435266;1256;99224;-40
2024/03/19 00:52:58;;;;;;;21.50;13.50;;;;;;;1.08;78.07;98964.85;436007;1256;111199;-40
2024/03/19 01:03:04;;;;;;;17.20;10.80;;;;;;;1.16;78.31;98964.38;435296;1254;109389;-40
2024/03/19 01:13:10;;;;;;;28.10;14.40;;;;;;;1.20;78.49;98963.23;435293;1255;98043;-39
2024/03/19 01:23:17;;;;;;;29.50;15.00;;;;;;;1.12;78.64;98956.42;435411;1251;111978;-39
2024/03/19 01:33:21;;;;;;;26.60;15.00;;;;;;;1.05;78.97;98963.42;435286;1255;107310;-39
2024/03/19 01:43:27;;;;;;;28.40;14.90;;;;;;;1.07;78.94;98963.62;435235;1255;99871;-39
2024/03/19 01:53:34;;;;;;;20.90;12.40;;;;;;;1.19;79.01;98965.39;435247;1254;111133;-40
2024/03/19 02:03:40;;;;;;;33.60;15.50;;;;;;;1.26;79.32;98960.55;435643;1253;108533;-39
2024/03/19 02:13:47;;;;;;;29.50;16.80;;;;;;;1.18;79.32;98964.89;435325;1256;118453;-39
2024/03/19 02:23:53;;;;;;;29.80;15.60;;;;;;;1.03;79.35;98966.67;435131;1257;107567;-40
2024/03/19 02:34:00;;;;;;;21.40;14.00;;;;;;;1.02;79.54;98972.79;435351;1256;99265;-40
2024/03/19 02:44:06;;;;;;;19.30;13.00;;;;;;;1.10;79.60;98979.27;436271;1253;111593;-40
2024/03/19 02:54:13;;;;;;;22.40;14.30;;;;;;;1.13;79.78;98984.09;435202;1250;107296;-40
2024/03/19 03:04:19;;;;;;;30.00;15.30;;;;;;;1.15;80.04;98992.46;435245;1255;98016;-38
2024/03/19 03:14:26;;;;;;;32.80;18.90;;;;;;;1.05;80.18;98996.84;435328;1256;113394;-39
2024/03/19 03:24:32;;;;;;;37.10;19.00;;;;;;;0.93;80.49;98999.91;435180;1256;108533;-40
2024/03/19 03:34:39;;;;;;;28.80;17.10;;;;;;;0.90;80.40;99001.30;435276;1251;101405;-40
2024/03/19 03:44:46;;;;;;;28.60;17.80;;;;;;;0.99;80.45;99012.38;435181;1255;107151;-40
2024/03/19 03:54:52;;;;;;;36.40;17.90;;;;;;;1.09;80.79;99017.79;435347;1264;99224;-39
2024/03/19 04:04:59;;;;;;;38.30;20.90;;;;;;;1.06;80.95;99026.58;435334;1254;110983;-39
2024/03/19 04:15:09;;;;;;;44.50;22.50;;;;;;;1.01;81.00;99034.73;435403;1263;107991;-40
2024/03/19 04:25:15;;;;;;;41.00;20.40;;;;;;;0.92;81.03;99037.86;435331;1254;97910;-40
2024/03/19 04:35:20;;;;;;;33.40;18.20;;;;;;;0.92;81.08;99048.79;435421;1256;111331;-40
2024/03/19 04:45:26;;;;;;;34.20;19.00;;;;;;;0.98;81.22;99052.96;435201;1256;108113;-41
2024/03/19 04:55:33;;;;;;;27.90;17.50;;;;;;;1.07;81.35;99063.26;435104;1256;99218;-40
2024/03/19 05:05:40;;;;;;;39.70;21.70;;;;;;;1.20;81.73;99077.36;435188;1256;107917;-39
2024/03/19 05:15:47;;;;;;;40.10;22.60;;;;;;;1.19;81.80;99091.86;435294;1256;99225;-39
2024/03/19 05:25:53;;;;;;;67.70;38.50;;;;;;;1.16;81.80;99108.45;435252;1256;111773;-39
2024/03/19 05:36:00;;;;;;;49.20;26.30;;;;;;;1.11;81.84;99114.55;435358;1256;106182;-38
2024/03/19 05:46:04;;;;;;;42.10;24.10;;;;;;;1.18;81.98;99119.10;434813;1257;99256;-38
2024/03/19 05:56:11;;;;;;;42.80;25.90;;;;;;;1.34;82.19;99126.77;435259;1263;111578;-39
2024/03/19 06:06:18;;;;;;;38.90;21.50;;;;;;;1.47;82.29;99134.77;435254;1251;108443;-40
2024/03/19 06:16:25;;;;;;;48.90;26.60;;;;;;;1.56;82.44;99137.51;435292;1254;99297;-40
2024/03/19 06:26:33;;;;;;;58.60;29.20;;;;;;;1.58;82.67;99142.17;436069;1256;111443;-38
2024/03/19 06:36:40;;;;;;;46.60;23.30;;;;;;;1.63;82.91;99145.30;436721;1256;108477;-39
2024/03/19 06:46:47;;;;;;;35.60;20.60;;;;;;;1.75;83.06;99151.05;435339;1257;98335;-39
2024/03/19 06:56:54;;;;;;;27.70;18.30;;;;;;;1.98;83.09;99158.70;435335;1251;110835;-38
2024/03/19 07:07:00;;;;;;;28.90;15.90;;;;;;;2.39;83.30;99166.99;435327;1254;108133;-40
2024/03/19 07:17:07;;;;;;;27.80;15.50;;;;;;;2.74;83.24;99174.15;435369;1254;99230;-40
2024/03/19 07:27:14;;;;;;;26.00;15.30;;;;;;;3.92;82.44;99172.17;435245;1257;112553;-40
2024/03/19 07:37:21;;;;;;;24.80;15.60;;;;;;;5.23;81.72;99173.35;435264;1257;108227;-38
2024/03/19 07:47:28;;;;;;;22.30;13.60;;;;;;;6.01;79.49;99171.63;435273;1251;99243;-40
2024/03/19 07:57:35;;;;;;;28.30;15.30;;;;;;;5.68;77.93;99189.30;435295;1251;107411;-40
2024/03/19 08:27:54;;;;;;;21.10;13.50;;;;;;;4.25;76.41;99204.20;435280;1256;107433;-39
2024/03/19 08:58:14;;;;;;;18.70;10.70;;;;;;;4.39;73.80;99212.14;435403;1257;107898;-40
2024/03/19 09:08:20;;;;;;;9.60;6.30;;;;;;;4.66;72.56;99213.10;435380;1254;119231;-39
2024/03/19 09:18:27;;;;;;;12.60;8.20;;;;;;;5.11;69.65;99215.67;435304;1256;108972;-40
2024/03/19 09:28:35;;;;;;;22.70;10.30;;;;;;;5.34;67.87;99218.86;435181;1251;99247;-40
2024/03/19 09:38:43;;;;;;;15.90;10.50;;;;;;;5.06;67.08;99231.41;435426;1251;111080;-39
2024/03/19 09:48:48;;;;;;;13.70;8.70;;;;;;;4.85;68.13;99234.80;435450;1257;108469;-39
2024/03/19 09:58:56;;;;;;;14.70;9.40;;;;;;;4.51;66.44;99243.40;435311;1251;99254;-40
2024/03/19 10:19:11;;;;;;;13.90;8.50;;;;;;;4.70;67.27;99244.44;435318;1251;108272;-40
2024/03/19 10:29:18;;;;;;;14.40;9.90;;;;;;;4.97;67.50;99242.16;435129;1251;98602;-40
2024/03/19 10:49:32;;;;;;;14.10;7.80;;;;;;;6.86;67.19;99227.71;435448;1251;108284;-40
2024/03/19 10:59:43;;;;;;;13.60;9.90;;;;;;;7.55;66.42;99229.15;435332;1254;99263;-41
2024/03/19 11:09:51;;;;;;;12.50;7.90;;;;;;;7.57;65.02;99225.73;435286;1251;113028;-39
2024/03/19 11:19:59;;;;;;;11.40;8.60;;;;;;;7.14;63.56;99222.61;435352;1251;107149;-40
2024/03/19 11:30:09;;;;;;;12.20;8.30;;;;;;;7.25;64.32;99217.69;435344;1254;99236;-40
2024/03/19 11:40:16;;;;;;;13.00;8.40;;;;;;;7.18;62.73;99220.33;435343;1256;110703;-40
2024/03/19 11:50:23;;;;;;;11.80;7.80;;;;;;;7.02;62.37;99217.35;435261;1251;106375;-40
2024/03/19 12:00:30;;;;;;;16.00;9.30;;;;;;;7.16;62.61;99211.73;435351;1254;99237;-39
2024/03/19 12:10:42;;;;;;;15.50;9.00;;;;;;;7.23;61.49;99203.36;435437;1251;112645;-39
2024/03/19 12:20:50;;;;;;;13.20;9.20;;;;;;;7.47;61.09;99198.50;435530;1251;108428;-39
2024/03/19 12:30:59;;;;;;;13.50;9.60;;;;;;;7.39;60.66;99197.52;435306;1251;99253;-40
2024/03/19 12:41:04;;;;;;;17.40;8.30;;;;;;;6.91;60.14;99199.52;435311;1256;107372;-40
2024/03/19 12:51:11;;;;;;;17.60;9.20;;;;;;;7.08;60.35;99197.58;435355;1251;98160;-39
2024/03/19 13:01:18;;;;;;;11.00;8.90;;;;;;;7.09;60.30;99186.20;435333;1251;110954;-39
2024/03/19 13:11:26;;;;;;;13.40;8.70;;;;;;;7.41;60.18;99180.38;435260;1251;107485;-40
2024/03/19 13:21:32;;;;;;;14.90;9.20;;;;;;;7.20;57.81;99177.80;435311;1253;99282;-39
2024/03/19 13:31:39;;;;;;;12.30;8.00;;;;;;;6.79;58.91;99175.98;435377;1251;113162;-40
2024/03/19 13:41:46;;;;;;;15.10;8.70;;;;;;;6.84;59.61;99165.94;435268;1255;108721;-40
2024/03/19 14:01:59;;;;;;;18.60;11.10;;;;;;;6.54;60.05;99164.06;435287;1251;112487;-41
2024/03/19 14:12:04;;;;;;;19.50;10.30;;;;;;;6.46;59.49;99158.52;435298;1251;108229;-39
2024/03/19 14:22:10;;;;;;;12.20;9.00;;;;;;;6.67;60.09;99158.17;435333;1251;118383;-39
2024/03/19 14:32:19;;;;;;;15.90;10.50;;;;;;;6.89;60.47;99158.30;435291;1250;109665;-40
2024/03/19 14:42:25;;;;;;;14.70;9.40;;;;;;;7.01;60.03;99161.95;435213;1251;98824;-40
2024/03/19 14:52:32;;;;;;;15.60;10.40;;;;;;;7.01;59.74;99163.21;435399;1254;111497;-39
2024/03/19 15:02:38;;;;;;;27.40;9.00;;;;;;;6.95;59.73;99167.19;435221;1250;108433;-40
2024/03/19 15:12:45;;;;;;;25.80;10.60;;;;;;;6.86;59.66;99171.58;435424;1251;98593;-40
2024/03/19 15:22:52;;;;;;;21.30;10.40;;;;;;;6.72;59.69;99169.67;435373;1251;111523;-39
2024/03/19 15:32:59;;;;;;;13.80;9.70;;;;;;;6.58;59.72;99166.12;435222;1252;108521;-40
2024/03/19 15:43:04;;;;;;;17.50;10.60;;;;;;;6.49;59.72;99168.73;435276;1251;99237;-39
2024/03/19 15:53:10;;;;;;;14.50;10.40;;;;;;;6.37;59.96;99164.91;435304;1255;98009;-40
2024/03/19 16:03:18;;;;;;;18.40;13.20;;;;;;;6.24;60.09;99173.67;435219;1256;108877;-40
2024/03/19 16:13:24;;;;;;;19.80;13.20;;;;;;;6.06;60.14;99174.91;435279;1253;98035;-40
2024/03/19 16:23:31;;;;;;;21.10;14.80;;;;;;;5.90;60.34;99184.27;435187;1250;110670;-40
2024/03/19 16:33:38;;;;;;;22.10;14.30;;;;;;;5.65;60.23;99193.70;435322;1256;108652;-40
2024/03/19 16:43:45;;;;;;;20.00;13.30;;;;;;;5.39;60.82;99191.58;435325;1250;98003;-39
2024/03/19 16:53:51;;;;;;;22.70;14.70;;;;;;;5.08;61.27;99197.36;435424;1251;111786;-40
2024/03/19 17:03:58;;;;;;;30.40;15.50;;;;;;;4.74;61.67;99208.77;435361;1256;109369;-40
2024/03/19 17:14:05;;;;;;;26.60;14.50;;;;;;;4.45;62.41;99214.73;435368;1255;98851;-39
2024/03/19 17:24:15;;;;;;;26.80;15.70;;;;;;;4.17;63.01;99229.55;435344;1250;112013;-39
2024/03/19 17:34:21;;;;;;;46.40;22.80;;;;;;;3.85;63.56;99235.75;435292;1255;107872;-39
2024/03/19 17:44:38;;;;;;;34.30;19.20;;;;;;;3.51;64.16;99242.30;434950;1254;389481;-40
2024/03/19 17:54:45;;;;;;;29.20;15.40;;;;;;;3.26;64.64;99255.52;435253;1256;112975;-40
2024/03/19 18:04:52;;;;;;;55.10;25.40;;;;;;;3.13;65.03;99268.98;435347;1251;108252;-41
2024/03/19 18:14:59;;;;;;;83.80;38.40;;;;;;;2.97;65.53;99274.88;435392;1256;99241;-39
2024/03/19 18:25:08;;;;;;;113.80;41.40;;;;;;;2.79;66.07;99276.20;435360;1254;111611;-40
2024/03/19 18:35:17;;;;;;;103.70;46.10;;;;;;;2.52;66.52;99291.92;435347;1256;108012;-40
2024/03/19 18:45:24;;;;;;;117.20;50.80;;;;;;;2.21;67.01;99300.09;435158;1251;118297;-39
2024/03/19 18:55:31;;;;;;;128.10;52.00;;;;;;;1.90;67.41;99301.23;435115;1256;107869;-41
2024/03/19 19:05:39;;;;;;;122.50;46.70;;;;;;;1.63;67.99;99315.23;435107;1251;99253;-40
2024/03/19 19:15:45;;;;;;;87.00;38.50;;;;;;;1.47;68.27;99312.22;435317;1251;111339;-40
2024/03/19 19:25:52;;;;;;;60.30;29.70;;;;;;;1.38;68.57;99314.48;435607;1251;107331;-39
2024/03/19 19:46:04;;;;;;;133.00;60.40;;;;;;;1.24;69.50;99317.49;435262;1255;111759;-40
2024/03/19 19:56:11;;;;;;;137.70;65.20;;;;;;;0.99;69.71;99316.31;435351;1256;107749;-39
2024/03/19 20:16:22;;;;;;;142.50;64.70;;;;;;;0.59;70.50;99313.34;435270;1255;112140;-40
2024/03/19 20:26:29;;;;;;;101.50;55.90;;;;;;;0.49;70.63;99312.23;435284;1256;109526;-40
2024/03/19 20:36:37;;;;;;;100.50;47.10;;;;;;;0.48;70.94;99316.24;435489;1254;98552;-40
2024/03/19 20:46:45;;;;;;;124.80;57.50;;;;;;;0.49;71.15;99309.44;435269;1250;111304;-40
2024/03/19 20:56:52;;;;;;;114.10;53.20;;;;;;;0.46;71.87;99309.73;435380;1250;108195;-40
2024/03/19 21:06:59;;;;;;;110.70;57.20;;;;;;;0.41;72.10;99303.15;435439;1253;99225;-40
2024/03/19 21:17:04;;;;;;;109.30;54.80;;;;;;;0.27;72.38;99310.57;435225;1256;111951;-41
2024/03/19 21:27:09;;;;;;;98.30;50.40;;;;;;;0.12;72.53;99311.67;435408;1253;107818;-40
2024/03/19 21:37:16;;;;;;;91.20;47.90;;;;;;;0.02;72.69;99310.16;435335;1253;98845;-40
2024/03/19 21:47:22;;;;;;;80.50;44.30;;;;;;;0.04;72.90;99311.34;435226;1256;109755;-40
2024/03/19 21:57:33;;;;;;;120.20;57.00;;;;;;;0.14;73.19;99308.80;435304;1264;99249;-41
2024/03/19 22:17:47;;;;;;;136.30;64.70;;;;;;;-0.18;73.71;99301.50;435300;1253;108515;-39
2024/03/19 22:27:53;;;;;;;130.30;65.30;;;;;;;-0.36;73.89;99294.03;435308;1256;99346;-40
2024/03/19 22:38:00;;;;;;;158.40;75.60;;;;;;;-0.50;74.29;99287.69;435317;1255;110795;-40
2024/03/19 22:48:06;;;;;;;137.70;77.40;;;;;;;-0.51;74.46;99286.72;435237;1250;99253;-39
2024/03/19 22:58:12;;;;;;;149.40;77.60;;;;;;;-0.43;74.56;99281.29;435205;1250;111598;-38
2024/03/19 23:08:18;;;;;;;157.80;78.30;;;;;;;-0.37;74.74;99284.38;435128;1251;107733;-40
2024/03/19 23:18:25;;;;;;;184.10;87.70;;;;;;;-0.23;75.40;99279.59;435325;1256;99246;-39
2024/03/19 23:28:32;;;;;;;194.60;91.30;;;;;;;-0.29;75.35;99287.64;435349;1256;111965;-38
2024/03/19 23:38:38;;;;;;;186.00;89.00;;;;;;;-0.45;75.34;99290.90;435287;1251;108380;-39
2024/03/19 23:48:45;;;;;;;180.60;88.80;;;;;;;-0.69;75.49;99285.16;435455;1255;98116;-40
2024/03/19 23:58:51;;;;;;;131.70;72.70;;;;;;;-0.73;75.84;99276.35;435260;1256;112893;-40
